PGT22BN LTFJ-LTAU
Flight info
| Callsign | PGT22BN |
|---|---|
| Flight time | 0h 55m |
| Altitude | 31000 |
| Route | VICEN T57 VEVUD/N0442F390 UT341 BAG UG8 GOBIT UL614 MARTI/N0401F270 W76 SARIZ |
| Aircraft | A320/M-DE3FGHILRWY/LB1 |
Departure
| Time | 2026-04-26 21:03 |
|---|---|
| Airport | Istanbul Sabiha Gökçen International Airport (LTFJ) |
Arrival
| Time | 2026-04-26 21:59 |
|---|---|
| Airport | Kayseri Erkilet International Airport (LTAU) |
| Time | Latitude | Longitude | Altitude | Speed | Heading |
|---|---|---|---|---|---|
| 2026-04-26 20:18 | 40.90858 | 29.31907 | 320 ft | 0 kts | 244° |
| 2026-04-26 20:50 | 40.90864 | 29.31922 | 321 ft | 2 kts | 244° |
| 2026-04-26 20:50 | 40.90870 | 29.31941 | 321 ft | 2 kts | 232° |
| 2026-04-26 20:51 | 40.90881 | 29.31959 | 319 ft | 2 kts | 198° |
| 2026-04-26 20:51 | 40.90897 | 29.31958 | 320 ft | 2 kts | 134° |
| 2026-04-26 20:51 | 40.90901 | 29.31953 | 321 ft | 0 kts | 134° |
| 2026-04-26 20:56 | 40.90902 | 29.31952 | 321 ft | 2 kts | 128° |
| 2026-04-26 20:56 | 40.90904 | 29.31949 | 321 ft | 0 kts | 114° |
| 2026-04-26 20:57 | 40.90894 | 29.31967 | 321 ft | 7 kts | 135° |
| 2026-04-26 20:57 | 40.90854 | 29.31999 | 321 ft | 6 kts | 135° |
| 2026-04-26 20:57 | 40.90834 | 29.32053 | 319 ft | 6 kts | 118° |
| 2026-04-26 20:58 | 40.90802 | 29.32082 | 321 ft | 5 kts | 153° |
| 2026-04-26 20:58 | 40.90772 | 29.32102 | 321 ft | 5 kts | 155° |
| 2026-04-26 20:58 | 40.90751 | 29.32115 | 321 ft | 0 kts | 155° |
| 2026-04-26 20:58 | 40.90727 | 29.32131 | 321 ft | 5 kts | 148° |
| 2026-04-26 20:59 | 40.90723 | 29.32181 | 321 ft | 11 kts | 68° |
| 2026-04-26 20:59 | 40.90737 | 29.32252 | 321 ft | 7 kts | 104° |
| 2026-04-26 20:59 | 40.90705 | 29.32286 | 321 ft | 6 kts | 160° |
| 2026-04-26 20:59 | 40.90662 | 29.32311 | 321 ft | 11 kts | 154° |
| 2026-04-26 21:00 | 40.90609 | 29.32370 | 320 ft | 9 kts | 109° |
| 2026-04-26 21:00 | 40.90580 | 29.32423 | 321 ft | 9 kts | 148° |
| 2026-04-26 21:00 | 40.90525 | 29.32458 | 320 ft | 4 kts | 155° |
| 2026-04-26 21:00 | 40.90516 | 29.32464 | 320 ft | 3 kts | 155° |
| 2026-04-26 21:01 | 40.90460 | 29.32497 | 319 ft | 9 kts | 155° |
| 2026-04-26 21:01 | 40.90423 | 29.32467 | 319 ft | 0 kts | 244° |
| 2026-04-26 21:02 | 40.90313 | 29.32166 | 319 ft | 76 kts | 244° |
| 2026-04-26 21:02 | 40.89981 | 29.31264 | 318 ft | 138 kts | 244° |
| 2026-04-26 21:03 | 40.89525 | 29.30013 | 762 ft | 151 kts | 245° |
| 2026-04-26 21:03 | 40.89076 | 29.28768 | 1457 ft | 152 kts | 245° |
| 2026-04-26 21:03 | 40.88599 | 29.27445 | 2019 ft | 167 kts | 246° |
| 2026-04-26 21:03 | 40.88074 | 29.25984 | 2379 ft | 190 kts | 247° |
| 2026-04-26 21:04 | 40.87473 | 29.24308 | 2739 ft | 215 kts | 247° |
| 2026-04-26 21:04 | 40.86797 | 29.22425 | 3248 ft | 239 kts | 248° |
| 2026-04-26 21:04 | 40.86065 | 29.20392 | 4042 ft | 250 kts | 248° |
| 2026-04-26 21:04 | 40.85309 | 29.18295 | 4965 ft | 257 kts | 248° |
| 2026-04-26 21:05 | 40.84396 | 29.16236 | 5865 ft | 268 kts | 230° |
| 2026-04-26 21:05 | 40.82768 | 29.14947 | 6653 ft | 286 kts | 195° |
| 2026-04-26 21:05 | 40.80763 | 29.15011 | 7444 ft | 296 kts | 162° |
| 2026-04-26 21:05 | 40.78892 | 29.16165 | 8429 ft | 297 kts | 148° |
| 2026-04-26 21:06 | 40.77162 | 29.17667 | 9453 ft | 298 kts | 144° |
| 2026-04-26 21:06 | 40.75471 | 29.19259 | 10392 ft | 300 kts | 139° |
| 2026-04-26 21:06 | 40.74016 | 29.21257 | 11222 ft | 304 kts | 128° |
| 2026-04-26 21:06 | 40.72642 | 29.23488 | 11657 ft | 325 kts | 130° |
| 2026-04-26 21:07 | 40.71068 | 29.25777 | 12031 ft | 346 kts | 133° |
| 2026-04-26 21:07 | 40.69376 | 29.28088 | 12695 ft | 355 kts | 134° |
| 2026-04-26 21:07 | 40.67624 | 29.30425 | 13455 ft | 360 kts | 134° |
| 2026-04-26 21:07 | 40.65877 | 29.32754 | 14171 ft | 365 kts | 134° |
| 2026-04-26 21:08 | 40.64089 | 29.35160 | 14854 ft | 370 kts | 134° |
| 2026-04-26 21:08 | 40.62298 | 29.37622 | 15544 ft | 374 kts | 131° |
| 2026-04-26 21:08 | 40.60847 | 29.40477 | 16207 ft | 378 kts | 115° |
| 2026-04-26 21:08 | 40.60106 | 29.43779 | 16863 ft | 380 kts | 92° |
| 2026-04-26 21:09 | 40.60200 | 29.47264 | 17529 ft | 383 kts | 85° |
| 2026-04-26 21:09 | 40.60162 | 29.50791 | 18195 ft | 388 kts | 92° |
| 2026-04-26 21:09 | 40.59860 | 29.54351 | 18785 ft | 393 kts | 97° |
| 2026-04-26 21:09 | 40.59400 | 29.57909 | 19398 ft | 396 kts | 99° |
| 2026-04-26 21:10 | 40.58870 | 29.61475 | 20012 ft | 399 kts | 100° |
| 2026-04-26 21:10 | 40.58330 | 29.65074 | 20604 ft | 402 kts | 100° |
| 2026-04-26 21:10 | 40.57815 | 29.68704 | 21185 ft | 405 kts | 99° |
| 2026-04-26 21:10 | 40.57331 | 29.72371 | 21743 ft | 408 kts | 98° |
| 2026-04-26 21:11 | 40.56869 | 29.76076 | 22303 ft | 411 kts | 98° |
| 2026-04-26 21:11 | 40.56425 | 29.79803 | 22858 ft | 414 kts | 97° |
| 2026-04-26 21:11 | 40.55981 | 29.83557 | 23406 ft | 417 kts | 98° |
| 2026-04-26 21:11 | 40.55528 | 29.87343 | 23875 ft | 421 kts | 98° |
| 2026-04-26 21:12 | 40.55067 | 29.91154 | 24315 ft | 424 kts | 98° |
| 2026-04-26 21:12 | 40.54597 | 29.94994 | 24765 ft | 427 kts | 98° |
| 2026-04-26 21:12 | 40.54117 | 29.98852 | 25207 ft | 429 kts | 98° |
| 2026-04-26 21:12 | 40.53631 | 30.02729 | 25637 ft | 432 kts | 98° |
| 2026-04-26 21:13 | 40.53142 | 30.06628 | 26064 ft | 434 kts | 98° |
| 2026-04-26 21:13 | 40.52815 | 30.09226 | 26344 ft | 436 kts | 98° |
| 2026-04-26 21:13 | 40.52319 | 30.13162 | 26763 ft | 438 kts | 98° |
| 2026-04-26 21:13 | 40.51819 | 30.17128 | 27176 ft | 441 kts | 98° |
| 2026-04-26 21:14 | 40.51150 | 30.22407 | 27708 ft | 444 kts | 98° |
| 2026-04-26 21:14 | 40.50806 | 30.25116 | 27980 ft | 446 kts | 98° |
| 2026-04-26 21:14 | 40.50291 | 30.29147 | 28387 ft | 448 kts | 98° |
| 2026-04-26 21:14 | 40.49771 | 30.33203 | 28779 ft | 451 kts | 98° |
| 2026-04-26 21:15 | 40.49254 | 30.37270 | 29175 ft | 454 kts | 98° |
| 2026-04-26 21:15 | 40.48732 | 30.41371 | 29512 ft | 456 kts | 98° |
| 2026-04-26 21:15 | 40.48206 | 30.45486 | 29791 ft | 457 kts | 98° |
| 2026-04-26 21:15 | 40.47677 | 30.49606 | 30076 ft | 458 kts | 98° |
| 2026-04-26 21:16 | 40.47146 | 30.53740 | 30330 ft | 460 kts | 98° |
| 2026-04-26 21:16 | 40.46608 | 30.57891 | 30573 ft | 462 kts | 98° |
| 2026-04-26 21:16 | 40.46063 | 30.62056 | 30818 ft | 464 kts | 98° |
| 2026-04-26 21:16 | 40.45521 | 30.66185 | 31022 ft | 466 kts | 98° |
| 2026-04-26 21:17 | 40.44976 | 30.70329 | 31066 ft | 453 kts | 98° |
| 2026-04-26 21:17 | 40.43925 | 30.78315 | 31070 ft | 439 kts | 98° |
| 2026-04-26 21:18 | 40.42892 | 30.86191 | 31073 ft | 437 kts | 98° |
| 2026-04-26 21:18 | 40.41856 | 30.94055 | 31074 ft | 437 kts | 98° |
| 2026-04-26 21:19 | 40.40814 | 31.01906 | 31078 ft | 436 kts | 98° |
| 2026-04-26 21:19 | 40.39769 | 31.09748 | 31079 ft | 436 kts | 98° |
| 2026-04-26 21:20 | 40.38714 | 31.17588 | 31080 ft | 436 kts | 98° |
| 2026-04-26 21:20 | 40.37628 | 31.25411 | 31086 ft | 436 kts | 99° |
| 2026-04-26 21:21 | 40.36378 | 31.33198 | 31089 ft | 436 kts | 101° |
| 2026-04-26 21:21 | 40.35064 | 31.40968 | 31089 ft | 436 kts | 101° |
| 2026-04-26 21:22 | 40.33761 | 31.48735 | 31085 ft | 436 kts | 101° |
| 2026-04-26 21:22 | 40.32487 | 31.56506 | 31085 ft | 436 kts | 100° |
| 2026-04-26 21:23 | 40.30585 | 31.68140 | 31082 ft | 435 kts | 101° |
| 2026-04-26 21:23 | 40.29302 | 31.75844 | 31079 ft | 435 kts | 101° |
| 2026-04-26 21:24 | 40.27999 | 31.83637 | 31078 ft | 435 kts | 101° |
| 2026-04-26 21:24 | 40.26711 | 31.91321 | 31079 ft | 435 kts | 101° |
| 2026-04-26 21:25 | 40.25208 | 31.98984 | 31079 ft | 435 kts | 104° |
| 2026-04-26 21:25 | 40.23488 | 32.06572 | 31078 ft | 435 kts | 105° |
| 2026-04-26 21:26 | 40.21768 | 32.14156 | 31078 ft | 435 kts | 104° |
| 2026-04-26 21:26 | 40.20105 | 32.21755 | 31075 ft | 434 kts | 104° |
| 2026-04-26 21:27 | 40.18459 | 32.29356 | 31072 ft | 434 kts | 104° |
| 2026-04-26 21:27 | 40.16795 | 32.36926 | 31073 ft | 434 kts | 104° |
| 2026-04-26 21:28 | 40.15124 | 32.44506 | 31068 ft | 434 kts | 104° |
| 2026-04-26 21:28 | 40.13449 | 32.52076 | 31069 ft | 434 kts | 104° |
| 2026-04-26 21:29 | 40.11779 | 32.59606 | 31064 ft | 434 kts | 104° |
| 2026-04-26 21:29 | 40.10099 | 32.67176 | 31060 ft | 434 kts | 104° |
| 2026-04-26 21:30 | 40.08404 | 32.74744 | 31063 ft | 434 kts | 105° |
| 2026-04-26 21:30 | 40.06676 | 32.82290 | 31063 ft | 434 kts | 107° |
| 2026-04-26 21:31 | 40.04615 | 32.89703 | 31059 ft | 435 kts | 110° |
| 2026-04-26 21:31 | 40.02359 | 32.97021 | 31061 ft | 435 kts | 110° |
| 2026-04-26 21:32 | 40.00123 | 33.04337 | 31062 ft | 434 kts | 110° |
| 2026-04-26 21:32 | 39.97945 | 33.11683 | 31056 ft | 434 kts | 109° |
| 2026-04-26 21:33 | 39.95781 | 33.19033 | 31055 ft | 434 kts | 110° |
| 2026-04-26 21:33 | 39.93609 | 33.26371 | 31058 ft | 433 kts | 110° |
| 2026-04-26 21:34 | 39.91437 | 33.33685 | 30981 ft | 433 kts | 110° |
| 2026-04-26 21:34 | 39.90345 | 33.37343 | 30734 ft | 432 kts | 110° |
| 2026-04-26 21:34 | 39.89252 | 33.40992 | 30480 ft | 432 kts | 110° |
| 2026-04-26 21:35 | 39.88161 | 33.44631 | 30260 ft | 433 kts | 110° |
| 2026-04-26 21:35 | 39.87063 | 33.48282 | 29990 ft | 432 kts | 110° |
| 2026-04-26 21:35 | 39.85966 | 33.51924 | 29699 ft | 431 kts | 110° |
| 2026-04-26 21:35 | 39.84874 | 33.55550 | 29420 ft | 429 kts | 111° |
| 2026-04-26 21:36 | 39.83518 | 33.59006 | 29139 ft | 429 kts | 121° |
| 2026-04-26 21:36 | 39.82387 | 33.61097 | 28949 ft | 428 kts | 128° |
| 2026-04-26 21:36 | 39.79614 | 33.64728 | 28579 ft | 426 kts | 141° |
| 2026-04-26 21:36 | 39.77280 | 33.67073 | 28319 ft | 425 kts | 142° |
| 2026-04-26 21:37 | 39.74940 | 33.69423 | 28058 ft | 423 kts | 141° |
| 2026-04-26 21:37 | 39.72630 | 33.71751 | 27790 ft | 420 kts | 141° |
| 2026-04-26 21:37 | 39.70328 | 33.74075 | 27526 ft | 418 kts | 141° |
| 2026-04-26 21:37 | 39.68036 | 33.76392 | 27266 ft | 416 kts | 141° |
| 2026-04-26 21:38 | 39.65759 | 33.78696 | 27007 ft | 414 kts | 141° |
| 2026-04-26 21:38 | 39.63489 | 33.80985 | 26750 ft | 413 kts | 141° |
| 2026-04-26 21:38 | 39.61226 | 33.83259 | 26494 ft | 411 kts | 142° |
| 2026-04-26 21:38 | 39.58978 | 33.85526 | 26242 ft | 408 kts | 141° |
| 2026-04-26 21:39 | 39.56735 | 33.87784 | 25993 ft | 408 kts | 142° |
| 2026-04-26 21:39 | 39.54493 | 33.90034 | 25748 ft | 406 kts | 142° |
| 2026-04-26 21:39 | 39.52258 | 33.92271 | 25505 ft | 405 kts | 142° |
| 2026-04-26 21:39 | 39.50034 | 33.94500 | 25260 ft | 404 kts | 142° |
| 2026-04-26 21:40 | 39.47819 | 33.96722 | 25014 ft | 402 kts | 142° |
| 2026-04-26 21:40 | 39.45615 | 33.98932 | 24789 ft | 400 kts | 142° |
| 2026-04-26 21:40 | 39.43422 | 34.01128 | 24550 ft | 398 kts | 142° |
| 2026-04-26 21:40 | 39.41249 | 34.03301 | 24312 ft | 396 kts | 142° |
| 2026-04-26 21:41 | 39.39069 | 34.05482 | 24080 ft | 395 kts | 142° |
| 2026-04-26 21:41 | 39.36904 | 34.07643 | 23849 ft | 394 kts | 142° |
| 2026-04-26 21:41 | 39.34734 | 34.09802 | 23616 ft | 392 kts | 142° |
| 2026-04-26 21:41 | 39.32577 | 34.11946 | 23337 ft | 391 kts | 142° |
| 2026-04-26 21:42 | 39.30425 | 34.14083 | 23072 ft | 389 kts | 142° |
| 2026-04-26 21:42 | 39.28283 | 34.16208 | 22804 ft | 388 kts | 142° |
| 2026-04-26 21:42 | 39.26150 | 34.18325 | 22534 ft | 386 kts | 142° |
| 2026-04-26 21:42 | 39.24050 | 34.20410 | 22272 ft | 385 kts | 142° |
| 2026-04-26 21:43 | 39.21903 | 34.22540 | 22010 ft | 383 kts | 142° |
| 2026-04-26 21:43 | 39.19827 | 34.24599 | 21752 ft | 381 kts | 143° |
| 2026-04-26 21:43 | 39.17732 | 34.26676 | 21493 ft | 379 kts | 143° |
| 2026-04-26 21:43 | 39.15643 | 34.28742 | 21237 ft | 377 kts | 143° |
| 2026-04-26 21:44 | 39.13565 | 34.30795 | 20982 ft | 376 kts | 143° |
| 2026-04-26 21:44 | 39.11590 | 34.32998 | 20731 ft | 375 kts | 134° |
| 2026-04-26 21:44 | 39.09961 | 34.35605 | 20480 ft | 374 kts | 123° |
| 2026-04-26 21:44 | 39.08629 | 34.38473 | 20234 ft | 373 kts | 120° |
| 2026-04-26 21:45 | 39.07311 | 34.41352 | 19984 ft | 372 kts | 121° |
| 2026-04-26 21:45 | 39.06001 | 34.44198 | 19678 ft | 367 kts | 121° |
| 2026-04-26 21:45 | 39.04704 | 34.47020 | 19216 ft | 366 kts | 121° |
| 2026-04-26 21:45 | 39.03409 | 34.49832 | 18738 ft | 365 kts | 121° |
| 2026-04-26 21:46 | 39.02114 | 34.52639 | 18243 ft | 365 kts | 121° |
| 2026-04-26 21:46 | 39.00821 | 34.55438 | 17747 ft | 363 kts | 121° |
| 2026-04-26 21:46 | 38.99534 | 34.58217 | 17273 ft | 360 kts | 121° |
| 2026-04-26 21:46 | 38.98255 | 34.60974 | 16814 ft | 358 kts | 122° |
| 2026-04-26 21:47 | 38.96982 | 34.63710 | 16362 ft | 356 kts | 122° |
| 2026-04-26 21:47 | 38.95713 | 34.66437 | 15857 ft | 355 kts | 122° |
| 2026-04-26 21:47 | 38.94447 | 34.69162 | 15410 ft | 354 kts | 122° |
| 2026-04-26 21:47 | 38.93197 | 34.71853 | 15044 ft | 350 kts | 122° |
| 2026-04-26 21:48 | 38.91953 | 34.74530 | 14677 ft | 347 kts | 122° |
| 2026-04-26 21:48 | 38.90720 | 34.77180 | 14303 ft | 345 kts | 122° |
| 2026-04-26 21:48 | 38.89494 | 34.79812 | 13919 ft | 343 kts | 122° |
| 2026-04-26 21:48 | 38.88276 | 34.82428 | 13502 ft | 341 kts | 122° |
| 2026-04-26 21:49 | 38.87061 | 34.85036 | 13013 ft | 340 kts | 122° |
| 2026-04-26 21:49 | 38.85854 | 34.87627 | 12493 ft | 335 kts | 122° |
| 2026-04-26 21:49 | 38.84678 | 34.90148 | 11987 ft | 323 kts | 122° |
| 2026-04-26 21:49 | 38.83557 | 34.92552 | 11494 ft | 313 kts | 122° |
| 2026-04-26 21:50 | 38.82453 | 34.94912 | 11004 ft | 304 kts | 122° |
| 2026-04-26 21:50 | 38.81722 | 34.96470 | 10690 ft | 298 kts | 122° |
| 2026-04-26 21:50 | 38.80335 | 34.99424 | 10226 ft | 282 kts | 122° |
| 2026-04-26 21:50 | 38.79355 | 35.01519 | 10149 ft | 268 kts | 122° |
| 2026-04-26 21:51 | 38.78410 | 35.03532 | 10043 ft | 259 kts | 123° |
| 2026-04-26 21:51 | 38.77484 | 35.05498 | 9828 ft | 258 kts | 123° |
| 2026-04-26 21:51 | 38.76540 | 35.07500 | 9115 ft | 266 kts | 122° |
| 2026-04-26 21:51 | 38.75575 | 35.09545 | 8398 ft | 271 kts | 122° |
| 2026-04-26 21:52 | 38.74604 | 35.11602 | 7916 ft | 266 kts | 122° |
| 2026-04-26 21:52 | 38.73670 | 35.13581 | 7721 ft | 253 kts | 122° |
| 2026-04-26 21:52 | 38.72777 | 35.15476 | 7603 ft | 245 kts | 122° |
| 2026-04-26 21:52 | 38.71969 | 35.17359 | 7491 ft | 237 kts | 111° |
| 2026-04-26 21:53 | 38.71582 | 35.19364 | 7397 ft | 228 kts | 94° |
| 2026-04-26 21:53 | 38.71640 | 35.21321 | 7237 ft | 214 kts | 78° |
| 2026-04-26 21:53 | 38.71985 | 35.23128 | 7062 ft | 203 kts | 75° |
| 2026-04-26 21:53 | 38.72316 | 35.24836 | 6932 ft | 192 kts | 75° |
| 2026-04-26 21:54 | 38.72622 | 35.26438 | 6786 ft | 176 kts | 75° |
| 2026-04-26 21:54 | 38.72900 | 35.27894 | 6630 ft | 163 kts | 75° |
| 2026-04-26 21:54 | 38.73165 | 35.29277 | 6390 ft | 158 kts | 75° |
| 2026-04-26 21:54 | 38.73425 | 35.30630 | 6167 ft | 155 kts | 75° |
| 2026-04-26 21:55 | 38.73682 | 35.31963 | 5954 ft | 153 kts | 75° |
| 2026-04-26 21:55 | 38.73936 | 35.33287 | 5745 ft | 153 kts | 75° |
| 2026-04-26 21:55 | 38.74188 | 35.34603 | 5540 ft | 152 kts | 75° |
| 2026-04-26 21:55 | 38.74440 | 35.35916 | 5336 ft | 151 kts | 75° |
| 2026-04-26 21:56 | 38.74691 | 35.37226 | 5137 ft | 151 kts | 75° |
| 2026-04-26 21:56 | 38.74941 | 35.38526 | 4939 ft | 150 kts | 75° |
| 2026-04-26 21:56 | 38.75190 | 35.39829 | 4735 ft | 150 kts | 76° |
| 2026-04-26 21:56 | 38.75437 | 35.41122 | 4530 ft | 148 kts | 76° |
| 2026-04-26 21:57 | 38.75676 | 35.42380 | 4329 ft | 147 kts | 76° |
| 2026-04-26 21:57 | 38.75915 | 35.43636 | 4141 ft | 144 kts | 76° |
| 2026-04-26 21:57 | 38.76154 | 35.44876 | 3951 ft | 142 kts | 76° |
| 2026-04-26 21:57 | 38.76393 | 35.46106 | 3759 ft | 142 kts | 76° |
| 2026-04-26 21:58 | 38.76626 | 35.47330 | 3581 ft | 141 kts | 76° |
| 2026-04-26 21:58 | 38.76849 | 35.48525 | 3466 ft | 127 kts | 76° |
| 2026-04-26 21:58 | 38.77019 | 35.49417 | 3467 ft | 78 kts | 76° |
| 2026-04-26 21:58 | 38.77120 | 35.49950 | 3461 ft | 52 kts | 76° |
| 2026-04-26 21:59 | 38.77196 | 35.50349 | 3462 ft | 42 kts | 76° |
| 2026-04-26 21:59 | 38.77243 | 35.50543 | 3465 ft | 13 kts | 44° |
| 2026-04-26 21:59 | 38.77327 | 35.50545 | 3467 ft | 12 kts | 346° |
| 2026-04-26 21:59 | 38.77360 | 35.50473 | 3467 ft | 12 kts | 256° |
| 2026-04-26 22:00 | 38.77337 | 35.50349 | 3464 ft | 17 kts | 256° |
| 2026-04-26 22:00 | 38.77304 | 35.50179 | 3460 ft | 21 kts | 257° |
| 2026-04-26 22:00 | 38.77267 | 35.49987 | 3461 ft | 23 kts | 256° |
| 2026-04-26 22:00 | 38.77228 | 35.49783 | 3464 ft | 22 kts | 256° |
| 2026-04-26 22:01 | 38.77193 | 35.49596 | 3467 ft | 22 kts | 256° |
| 2026-04-26 22:01 | 38.77155 | 35.49397 | 3468 ft | 23 kts | 256° |
| 2026-04-26 22:01 | 38.77116 | 35.49193 | 3469 ft | 24 kts | 256° |
| 2026-04-26 22:01 | 38.77074 | 35.48973 | 3468 ft | 26 kts | 256° |
| 2026-04-26 22:02 | 38.77036 | 35.48771 | 3466 ft | 18 kts | 257° |
| 2026-04-26 22:02 | 38.77018 | 35.48677 | 3463 ft | 17 kts | 256° |
| 2026-04-26 22:02 | 38.76972 | 35.48581 | 3466 ft | 6 kts | 171° |
| 2026-04-26 22:02 | 38.76969 | 35.48582 | 3466 ft | 0 kts | 169° |
| 2026-04-26 22:03 | 38.76968 | 35.48582 | 3466 ft | 1 kts | 169° |
| 2026-04-26 22:03 | 38.76902 | 35.48599 | 3467 ft | 9 kts | 167° |
| 2026-04-26 22:04 | 38.76816 | 35.48624 | 3468 ft | 13 kts | 167° |
| 2026-04-26 22:04 | 38.76771 | 35.48637 | 3468 ft | 8 kts | 167° |
| 2026-04-26 22:04 | 38.76735 | 35.48661 | 3468 ft | 3 kts | 139° |
| 2026-04-26 22:04 | 38.76719 | 35.48672 | 3468 ft | 4 kts | 158° |
| 2026-04-26 22:05 | 38.76675 | 35.48687 | 3468 ft | 6 kts | 166° |
| 2026-04-26 22:05 | 38.76659 | 35.48692 | 3468 ft | 0 kts | 167° |
| 2026-04-26 22:05 | 38.76658 | 35.48692 | 3468 ft | 0 kts | 168° |